createdAt,value
2022-11-18T00:01:47.661Z,11.90
2022-11-18T00:04:35.344Z,11.90
2022-11-18T00:07:24.433Z,11.90
2022-11-18T00:10:11.729Z,11.80
2022-11-18T00:13:17.500Z,11.90
2022-11-18T00:16:07.191Z,11.90
2022-11-18T00:18:54.540Z,12.00
2022-11-18T00:21:42.110Z,12.00
2022-11-18T00:24:29.482Z,12.00
2022-11-18T00:27:16.982Z,12.00
2022-11-18T00:30:04.335Z,12.10
2022-11-18T00:32:54.499Z,12.10
2022-11-18T00:35:41.979Z,12.00
2022-11-18T00:38:30.924Z,11.90
2022-11-18T00:41:18.219Z,11.90
2022-11-18T00:44:09.404Z,12.00
2022-11-18T00:46:54.603Z,12.00
2022-11-18T00:49:41.664Z,12.10
2022-11-18T00:52:29.218Z,12.20
2022-11-18T00:55:16.769Z,12.20
2022-11-18T00:58:03.682Z,12.30
2022-11-18T01:00:53.933Z,12.40
2022-11-18T01:03:41.470Z,12.40
2022-11-18T01:06:28.781Z,12.30
2022-11-18T01:09:16.289Z,12.20
2022-11-18T01:12:22.223Z,12.20
2022-11-18T01:15:09.872Z,12.30
2022-11-18T01:17:57.453Z,12.30
2022-11-18T01:20:45.574Z,12.30
2022-11-18T01:23:33.452Z,12.40
2022-11-18T01:26:21.672Z,12.40
2022-11-18T01:29:08.915Z,12.50
2022-11-18T01:32:22.848Z,12.50
2022-11-18T01:34:44.997Z,12.60
2022-11-18T01:37:32.400Z,12.50
2022-11-18T01:40:19.669Z,12.50
2022-11-18T01:43:16.211Z,12.40
2022-11-18T01:46:03.322Z,12.40
2022-11-18T01:48:56.524Z,12.40
2022-11-18T01:51:47.005Z,12.50
2022-11-18T01:54:37.557Z,12.60
2022-11-18T01:57:27.721Z,12.70
2022-11-18T02:00:15.732Z,12.70
2022-11-18T02:03:03.623Z,12.70
2022-11-18T02:05:53.192Z,12.70
2022-11-18T02:08:42.618Z,12.70
2022-11-18T02:11:48.970Z,12.70
2022-11-18T02:14:39.435Z,12.70
2022-11-18T02:17:44.878Z,12.70
2022-11-18T02:20:35.483Z,12.70
2022-11-18T02:23:40.699Z,12.60
2022-11-18T02:26:40.871Z,12.60
2022-11-18T02:29:36.993Z,12.60
2022-11-18T02:32:27.208Z,12.60
2022-11-18T02:35:21.094Z,12.50
2022-11-18T02:38:14.494Z,12.40
2022-11-18T02:41:04.866Z,12.30
2022-11-18T02:44:10.370Z,12.20
2022-11-18T02:47:01.230Z,12.20
2022-11-18T02:49:53.007Z,12.20
2022-11-18T02:52:41.519Z,12.20
2022-11-18T02:55:32.022Z,12.10
2022-11-18T02:58:27.547Z,12.10
2022-11-18T03:01:23.652Z,12.20
2022-11-18T03:04:10.981Z,12.20
2022-11-18T03:07:05.648Z,12.30
2022-11-18T03:09:58.105Z,12.20
2022-11-18T03:13:03.070Z,12.30
2022-11-18T03:15:59.293Z,12.30
2022-11-18T03:18:52.624Z,12.20
2022-11-18T03:21:45.611Z,12.20
2022-11-18T03:24:36.368Z,12.10
2022-11-18T03:27:26.674Z,12.00
2022-11-18T03:30:17.095Z,11.90
2022-11-18T03:33:07.401Z,11.90
2022-11-18T03:35:55.392Z,11.90
2022-11-18T03:38:45.700Z,11.90
2022-11-18T03:41:36.421Z,11.90
2022-11-18T03:44:26.676Z,11.80
2022-11-18T03:47:19.976Z,11.80
2022-11-18T03:50:10.248Z,11.80
2022-11-18T03:52:58.540Z,11.90
2022-11-18T03:55:49.393Z,12.00
2022-11-18T03:58:45.679Z,12.20
2022-11-18T04:01:36.485Z,12.20
2022-11-18T04:04:26.531Z,12.20
2022-11-18T04:07:38.160Z,12.20
2022-11-18T04:10:43.130Z,12.20
2022-11-18T04:13:34.006Z,12.20
2022-11-18T04:16:24.282Z,12.10
2022-11-18T04:19:11.733Z,12.20
2022-11-18T04:21:59.002Z,12.30
2022-11-18T04:24:46.628Z,12.30
2022-11-18T04:27:34.016Z,12.40
2022-11-18T04:30:24.233Z,12.40
2022-11-18T04:33:11.685Z,12.50
2022-11-18T04:35:58.879Z,12.50
2022-11-18T04:38:46.676Z,12.50
2022-11-18T04:41:51.656Z,12.40
2022-11-18T04:44:39.285Z,12.40
2022-11-18T04:47:26.868Z,12.40
2022-11-18T04:50:14.511Z,12.30
2022-11-18T04:53:01.627Z,12.40
2022-11-18T04:55:49.072Z,12.40
2022-11-18T04:58:36.222Z,12.30
2022-11-18T05:01:27.082Z,12.30
2022-11-18T05:04:16.452Z,12.20
2022-11-18T05:07:05.728Z,12.20
2022-11-18T05:09:54.271Z,12.00
2022-11-18T05:12:52.332Z,11.90
2022-11-18T05:15:39.549Z,11.80
2022-11-18T05:18:26.753Z,11.80
2022-11-18T05:21:14.154Z,11.90
2022-11-18T05:24:02.558Z,11.90
2022-11-18T05:26:49.725Z,12.00
2022-11-18T05:29:37.037Z,12.10
2022-11-18T05:32:24.290Z,12.20
2022-11-18T05:35:11.794Z,12.20
2022-11-18T05:37:59.057Z,12.20
2022-11-18T05:40:47.077Z,12.20
2022-11-18T05:43:35.446Z,12.20
2022-11-18T05:46:25.253Z,12.20
2022-11-18T05:49:12.658Z,11.90
2022-11-18T05:51:59.852Z,11.70
2022-11-18T05:54:53.097Z,11.60
2022-11-18T05:57:40.737Z,11.60
2022-11-18T06:00:28.616Z,11.50
2022-11-18T06:03:31.032Z,11.50
2022-11-18T06:06:23.862Z,11.40
2022-11-18T06:09:13.670Z,11.40
2022-11-18T06:12:03.951Z,11.30
2022-11-18T06:14:54.551Z,11.30
2022-11-18T06:17:45.432Z,11.30
2022-11-18T06:20:35.128Z,11.20
2022-11-18T06:23:23.540Z,11.20
2022-11-18T06:26:12.222Z,11.20
2022-11-18T06:29:00.068Z,11.20
2022-11-18T06:31:47.687Z,11.20
2022-11-18T06:34:41.002Z,11.40
2022-11-18T06:37:23.527Z,11.60
2022-11-18T06:40:11.949Z,11.80
2022-11-18T06:43:21.513Z,11.80
2022-11-18T06:46:29.594Z,11.90
2022-11-18T06:49:18.319Z,11.90
2022-11-18T06:52:05.676Z,11.90
2022-11-18T06:54:54.375Z,12.00
2022-11-18T06:57:41.868Z,11.90
2022-11-18T07:00:29.639Z,11.80
2022-11-18T07:03:17.544Z,11.60
2022-11-18T07:06:05.151Z,11.60
2022-11-18T07:08:54.297Z,11.50
2022-11-18T07:11:41.882Z,11.60
2022-11-18T07:14:29.345Z,11.80
2022-11-18T07:17:16.642Z,11.90
2022-11-18T07:20:04.868Z,12.00
2022-11-18T07:22:54.074Z,12.10
2022-11-18T07:25:45.302Z,12.10
2022-11-18T07:28:30.952Z,12.10
2022-11-18T07:31:21.127Z,12.20
2022-11-18T07:34:08.882Z,12.10
2022-11-18T07:36:56.198Z,12.10
2022-11-18T07:39:43.782Z,12.10
2022-11-18T07:42:32.628Z,12.00
2022-11-18T07:45:21.437Z,12.10
2022-11-18T07:48:08.680Z,12.20
2022-11-18T07:50:56.320Z,12.30
2022-11-18T07:53:44.073Z,12.40
2022-11-18T07:56:31.271Z,12.40
2022-11-18T07:59:19.246Z,12.40
2022-11-18T08:02:06.662Z,12.50
2022-11-18T08:04:54.198Z,12.60
2022-11-18T08:07:41.853Z,12.60
2022-11-18T08:10:29.546Z,12.70
2022-11-18T08:13:17.048Z,12.60
2022-11-18T08:16:05.349Z,12.60
2022-11-18T08:18:54.720Z,12.60
2022-11-18T08:21:42.398Z,12.60
2022-11-18T08:24:29.603Z,12.50
2022-11-18T08:27:17.506Z,12.50
2022-11-18T08:30:05.393Z,12.40
2022-11-18T08:32:54.447Z,12.20
2022-11-18T08:35:41.707Z,12.10
2022-11-18T08:38:29.482Z,12.10
2022-11-18T08:41:22.061Z,12.10
2022-11-18T08:44:10.867Z,12.20
2022-11-18T08:46:58.284Z,12.20
2022-11-18T08:49:48.409Z,12.00
2022-11-18T08:52:36.067Z,11.80
2022-11-18T08:55:23.638Z,11.80
2022-11-18T08:58:11.484Z,11.80
2022-11-18T09:00:59.076Z,11.80
2022-11-18T09:03:47.239Z,11.70
2022-11-18T09:06:34.951Z,11.50
2022-11-18T09:09:24.379Z,11.60
2022-11-18T09:12:13.383Z,11.60
2022-11-18T09:15:16.654Z,11.70
2022-11-18T09:17:49.477Z,11.80
2022-11-18T09:20:38.202Z,11.70
2022-11-18T09:23:25.956Z,11.80
2022-11-18T09:26:16.901Z,11.80
2022-11-18T09:29:04.583Z,11.80
2022-11-18T09:31:54.730Z,11.80
2022-11-18T09:34:43.456Z,11.90
2022-11-18T09:37:31.159Z,11.90
2022-11-18T09:40:19.432Z,11.90
2022-11-18T09:43:13.016Z,12.00
2022-11-18T09:46:03.583Z,12.10
2022-11-18T09:49:09.213Z,12.10
2022-11-18T09:51:57.810Z,12.10
2022-11-18T09:54:45.200Z,12.30
2022-11-18T09:57:38.495Z,12.40
2022-11-18T10:00:31.039Z,12.40
2022-11-18T10:03:33.797Z,12.40
2022-11-18T10:06:32.185Z,12.60
2022-11-18T10:09:28.829Z,12.60
2022-11-18T10:12:37.308Z,12.60
2022-11-18T10:15:27.578Z,12.50
2022-11-18T10:18:59.773Z,12.30
2022-11-18T10:21:36.900Z,12.40
2022-11-18T10:24:27.466Z,12.30
2022-11-18T10:27:16.959Z,12.30
2022-11-18T10:30:07.401Z,12.50
2022-11-18T10:33:06.994Z,12.50
2022-11-18T10:36:12.903Z,12.60
2022-11-18T10:39:17.096Z,12.60
2022-11-18T10:42:07.485Z,12.50
2022-11-18T10:44:54.912Z,12.40
2022-11-18T10:47:42.257Z,12.40
2022-11-18T10:50:38.884Z,12.30
2022-11-18T10:53:37.559Z,12.40
2022-11-18T10:56:25.983Z,12.50
2022-11-18T10:59:34.870Z,12.40
2022-11-18T11:02:29.996Z,12.40
2022-11-18T11:05:24.968Z,12.40
2022-11-18T11:08:37.642Z,12.40
2022-11-18T11:11:16.065Z,12.40
2022-11-18T11:14:43.926Z,12.30
2022-11-18T11:17:54.683Z,12.30
2022-11-18T11:20:42.204Z,12.50
2022-11-18T11:23:31.748Z,12.50
2022-11-18T11:29:36.256Z,12.80
2022-11-18T11:32:53.868Z,12.80
2022-11-18T11:35:51.432Z,12.70
2022-11-18T11:39:05.180Z,12.80
2022-11-18T11:42:22.120Z,12.90
2022-11-18T11:45:24.573Z,13.00
2022-11-18T11:48:18.282Z,13.30
2022-11-18T11:51:17.821Z,13.70
2022-11-18T11:54:11.098Z,13.70
2022-11-18T11:57:07.827Z,13.60
2022-11-18T12:00:04.655Z,13.60
2022-11-18T12:03:09.848Z,13.70
2022-11-18T12:05:57.007Z,13.90
2022-11-18T12:08:56.592Z,13.90
2022-11-18T12:11:52.051Z,14.00
2022-11-18T12:14:42.349Z,14.10
2022-11-18T12:17:34.346Z,14.00
2022-11-18T12:20:45.561Z,13.90
2022-11-18T12:23:34.756Z,13.90
2022-11-18T12:26:37.231Z,14.00
2022-11-18T12:29:27.584Z,14.10
2022-11-18T12:32:27.013Z,14.60
2022-11-18T12:35:22.280Z,14.70
2022-11-18T12:38:14.463Z,14.60
2022-11-18T12:41:02.999Z,14.30
2022-11-18T12:43:53.405Z,14.00
2022-11-18T12:46:49.504Z,13.90
2022-11-18T12:49:40.158Z,13.70
2022-11-18T12:52:36.202Z,13.60
2022-11-18T12:55:27.201Z,13.40
2022-11-18T12:58:25.086Z,13.40
2022-11-18T13:01:14.880Z,13.40
2022-11-18T13:04:14.678Z,13.40
2022-11-18T13:07:03.460Z,13.40
2022-11-18T13:09:54.582Z,13.20
2022-11-18T13:12:43.174Z,13.20
2022-11-18T13:15:48.276Z,13.20
2022-11-18T13:18:37.362Z,13.00
2022-11-18T13:21:45.603Z,13.00
2022-11-18T13:24:34.934Z,12.90
2022-11-18T13:27:49.629Z,13.00
2022-11-18T13:30:39.874Z,12.90
2022-11-18T13:33:27.723Z,12.90
2022-11-18T13:36:20.802Z,12.90
2022-11-18T13:39:10.082Z,12.80
2022-11-18T13:42:02.377Z,12.90
2022-11-18T13:44:57.571Z,13.00
2022-11-18T13:47:51.024Z,13.00
2022-11-18T13:50:46.051Z,12.90
2022-11-18T13:53:41.267Z,13.00
2022-11-18T13:56:35.087Z,13.00
2022-11-18T13:59:23.735Z,13.00
2022-11-18T14:02:14.319Z,13.10
2022-11-18T14:05:02.909Z,13.10
2022-11-18T14:08:02.331Z,13.10
2022-11-18T14:10:49.479Z,13.20
2022-11-18T14:13:39.730Z,13.20
2022-11-18T14:16:32.718Z,13.10
2022-11-18T14:19:33.812Z,13.10
2022-11-18T14:22:26.921Z,13.10
2022-11-18T14:25:19.931Z,13.20
2022-11-18T14:28:22.568Z,13.20
2022-11-18T14:31:21.817Z,13.20
2022-11-18T14:34:27.301Z,13.30
2022-11-18T14:37:15.800Z,13.40
2022-11-18T14:40:03.106Z,13.30
2022-11-18T14:42:50.524Z,13.30
2022-11-18T14:45:38.682Z,13.30
2022-11-18T14:48:32.312Z,13.20
2022-11-18T14:51:17.811Z,13.10
2022-11-18T14:54:04.922Z,13.00
2022-11-18T14:56:53.984Z,12.90
2022-11-18T14:59:41.295Z,12.80
2022-11-18T15:02:28.587Z,12.80
2022-11-18T15:05:15.708Z,12.80
2022-11-18T15:08:03.532Z,12.70
2022-11-18T15:10:50.871Z,12.60
2022-11-18T15:13:39.171Z,12.50
2022-11-18T15:16:29.472Z,12.40
2022-11-18T15:19:16.938Z,12.30
2022-11-18T15:22:04.170Z,12.20
2022-11-18T15:24:51.759Z,12.00
2022-11-18T15:27:39.144Z,11.80
2022-11-18T15:30:26.515Z,11.80
2022-11-18T15:33:13.921Z,11.60
2022-11-18T15:36:01.380Z,11.50
2022-11-18T15:38:49.669Z,11.40
2022-11-18T15:41:38.196Z,11.30
2022-11-18T15:44:25.373Z,11.20
2022-11-18T15:47:12.844Z,11.10
2022-11-18T15:50:00.346Z,11.00
2022-11-18T15:52:47.355Z,10.90
2022-11-18T15:55:35.029Z,10.80
2022-11-18T15:58:22.313Z,10.50
2022-11-18T16:01:09.573Z,10.40
2022-11-18T16:03:57.326Z,10.40
2022-11-18T16:06:44.795Z,10.40
2022-11-18T16:09:50.253Z,10.30
2022-11-18T16:12:46.700Z,10.30
2022-11-18T16:15:44.610Z,10.00
2022-11-18T16:18:33.477Z,9.90
2022-11-18T16:21:20.771Z,9.90
2022-11-18T16:24:10.943Z,9.90
2022-11-18T16:26:58.770Z,9.80
2022-11-18T16:29:46.139Z,9.80
2022-11-18T16:32:33.625Z,9.70
2022-11-18T16:35:20.759Z,9.70
2022-11-18T16:38:09.665Z,9.70
2022-11-18T16:40:57.903Z,9.70
2022-11-18T16:43:45.398Z,9.60
2022-11-18T16:46:34.502Z,9.50
2022-11-18T16:49:23.857Z,9.40
2022-11-18T16:52:11.200Z,9.30
2022-11-18T16:54:58.638Z,9.30
2022-11-18T16:57:46.026Z,9.10
2022-11-18T17:01:09.087Z,9.20
2022-11-18T17:03:22.266Z,9.40
2022-11-18T17:06:10.479Z,9.50
2022-11-18T17:08:58.838Z,9.50
2022-11-18T17:11:46.311Z,9.50
2022-11-18T17:14:33.958Z,9.60
2022-11-18T17:17:21.278Z,9.60
2022-11-18T17:20:08.390Z,9.60
2022-11-18T17:22:55.517Z,9.70
2022-11-18T17:25:43.550Z,9.80
2022-11-18T17:28:32.264Z,9.80
2022-11-18T17:31:21.748Z,9.90
2022-11-18T17:34:12.074Z,9.80
2022-11-18T17:37:04.779Z,9.90
2022-11-18T17:39:48.111Z,9.90
2022-11-18T17:42:35.622Z,9.90
2022-11-18T17:45:22.744Z,10.00
2022-11-18T17:48:09.757Z,10.10
2022-11-18T17:51:06.044Z,10.30
2022-11-18T17:53:53.599Z,10.30
2022-11-18T17:56:41.255Z,10.20
2022-11-18T17:59:28.569Z,10.20
2022-11-18T18:02:16.023Z,10.20
2022-11-18T18:05:03.829Z,10.20
2022-11-18T18:07:51.276Z,10.20
2022-11-18T18:10:41.542Z,10.30
2022-11-18T18:13:46.917Z,10.30
2022-11-18T18:16:34.754Z,10.40
2022-11-18T18:19:24.030Z,10.50
2022-11-18T18:22:11.243Z,10.60
2022-11-18T18:24:58.361Z,10.60
2022-11-18T18:27:45.779Z,10.70
2022-11-18T18:30:33.175Z,10.70
2022-11-18T18:33:20.601Z,10.60
2022-11-18T18:36:09.488Z,10.50
2022-11-18T18:38:58.928Z,10.50
2022-11-18T18:41:46.152Z,10.60
2022-11-18T18:44:50.976Z,10.60
2022-11-18T18:47:38.265Z,10.60
2022-11-18T18:50:29.635Z,10.70
2022-11-18T18:53:14.568Z,10.80
2022-11-18T18:56:02.046Z,10.70
2022-11-18T18:58:49.670Z,10.80
2022-11-18T19:01:37.633Z,10.90
2022-11-18T19:04:24.600Z,10.90
2022-11-18T19:07:11.940Z,10.90
2022-11-18T19:09:59.370Z,10.90
2022-11-18T19:12:48.182Z,10.90
2022-11-18T19:15:36.200Z,10.90
2022-11-18T19:18:24.233Z,10.90
2022-11-18T19:21:12.052Z,10.80
2022-11-18T19:23:59.317Z,10.70
2022-11-18T19:26:47.287Z,10.70
2022-11-18T19:29:34.412Z,10.70
2022-11-18T19:32:21.763Z,10.60
2022-11-18T19:35:10.281Z,10.50
2022-11-18T19:37:57.781Z,10.40
2022-11-18T19:40:45.225Z,10.30
2022-11-18T19:43:32.962Z,10.20
2022-11-18T19:46:20.357Z,10.20
2022-11-18T19:49:07.459Z,10.10
2022-11-18T19:51:54.559Z,10.20
2022-11-18T19:54:42.368Z,10.30
2022-11-18T19:57:29.852Z,10.30
2022-11-18T20:00:18.204Z,10.40
2022-11-18T20:03:06.057Z,10.60
2022-11-18T20:05:53.592Z,10.70
2022-11-18T20:08:41.681Z,10.70
2022-11-18T20:11:28.602Z,10.60
2022-11-18T20:14:15.769Z,10.60
2022-11-18T20:17:02.997Z,10.60
2022-11-18T20:19:50.126Z,10.80
2022-11-18T20:22:37.485Z,10.90
2022-11-18T20:25:24.508Z,10.90
2022-11-18T20:28:13.391Z,10.80
2022-11-18T20:31:00.838Z,10.90
2022-11-18T20:33:50.831Z,10.90
2022-11-18T20:36:37.983Z,10.90
2022-11-18T20:39:25.623Z,10.90
2022-11-18T20:42:31.014Z,10.90
2022-11-18T20:45:18.104Z,10.80
2022-11-18T20:48:05.636Z,10.70
2022-11-18T20:50:52.847Z,10.60
2022-11-18T20:53:42.385Z,10.60
2022-11-18T20:56:29.792Z,10.70
2022-11-18T20:59:17.549Z,10.70
2022-11-18T21:02:05.065Z,10.80
2022-11-18T21:04:51.875Z,10.90
2022-11-18T21:07:39.028Z,11.00
2022-11-18T21:10:26.320Z,10.90
2022-11-18T21:13:31.458Z,10.90
2022-11-18T21:16:19.657Z,11.10
2022-11-18T21:19:06.686Z,11.10
2022-11-18T21:21:55.079Z,11.10
2022-11-18T21:24:42.412Z,11.00
2022-11-18T21:27:29.526Z,11.00
2022-11-18T21:30:18.713Z,10.90
2022-11-18T21:33:06.092Z,10.90
2022-11-18T21:35:53.424Z,11.00
2022-11-18T21:38:40.680Z,11.00
2022-11-18T21:41:29.580Z,11.00
2022-11-18T21:44:17.406Z,11.10
2022-11-18T21:47:04.770Z,11.10
2022-11-18T21:49:52.167Z,11.00
2022-11-18T21:52:39.687Z,11.00
2022-11-18T21:55:27.281Z,11.00
2022-11-18T21:58:14.491Z,10.90
2022-11-18T22:01:14.252Z,10.90
2022-11-18T22:04:03.447Z,10.90
2022-11-18T22:06:50.542Z,10.90
2022-11-18T22:09:38.021Z,10.90
2022-11-18T22:12:25.530Z,10.90
2022-11-18T22:15:12.626Z,10.90
2022-11-18T22:18:00.018Z,10.70
2022-11-18T22:20:47.537Z,10.50
2022-11-18T22:23:35.351Z,10.50
2022-11-18T22:26:22.735Z,10.40
2022-11-18T22:29:10.181Z,10.40
2022-11-18T22:31:57.654Z,10.50
2022-11-18T22:34:49.218Z,10.60
2022-11-18T22:37:33.972Z,10.60
2022-11-18T22:40:21.443Z,10.60
2022-11-18T22:43:09.033Z,10.70
2022-11-18T22:46:08.298Z,10.70
2022-11-18T22:48:57.629Z,10.50
2022-11-18T22:51:44.931Z,10.50
2022-11-18T22:54:40.515Z,10.50
2022-11-18T22:57:21.588Z,10.40
2022-11-18T23:00:10.108Z,10.40
2022-11-18T23:02:57.180Z,10.30
2022-11-18T23:05:46.824Z,10.30
2022-11-18T23:08:36.693Z,10.30
2022-11-18T23:11:42.072Z,10.20
2022-11-18T23:14:29.220Z,10.10
2022-11-18T23:17:16.710Z,9.90
2022-11-18T23:20:03.718Z,9.70
2022-11-18T23:22:51.021Z,9.60
2022-11-18T23:25:38.483Z,9.30
2022-11-18T23:28:26.092Z,9.10
2022-11-18T23:31:16.375Z,9.10
2022-11-18T23:34:03.553Z,9.10
2022-11-18T23:36:50.991Z,8.90
2022-11-18T23:39:38.989Z,8.90
2022-11-18T23:42:26.144Z,8.80
2022-11-18T23:45:13.245Z,8.90
2022-11-18T23:48:00.545Z,8.80
2022-11-18T23:51:02.792Z,8.90
2022-11-18T23:53:55.231Z,8.80
2022-11-18T23:56:42.635Z,8.90
2022-11-18T23:59:30.054Z,8.80
